createdAt,value
2018-07-01T00:00:05.723Z,59.80
2018-07-01T00:02:33.638Z,59.97
2018-07-01T00:05:01.544Z,59.19
2018-07-01T00:07:29.455Z,59.92
2018-07-01T00:09:57.408Z,60.28
2018-07-01T00:12:25.380Z,60.40
2018-07-01T00:14:53.637Z,59.96
2018-07-01T00:17:21.502Z,59.88
2018-07-01T00:19:49.375Z,60.28
2018-07-01T00:22:17.266Z,60.12
2018-07-01T00:24:45.159Z,60.88
2018-07-01T00:27:13.076Z,60.70
2018-07-01T00:29:40.920Z,61.18
2018-07-01T00:32:08.783Z,61.09
2018-07-01T00:34:36.976Z,60.96
2018-07-01T00:37:04.918Z,60.54
2018-07-01T00:39:32.811Z,60.19
2018-07-01T00:42:00.740Z,60.08
2018-07-01T00:44:28.643Z,59.71
2018-07-01T00:46:56.526Z,60.37
2018-07-01T00:49:24.410Z,60.41
2018-07-01T00:51:52.305Z,60.23
2018-07-01T00:54:20.186Z,60.29
2018-07-01T00:56:48.067Z,60.30
2018-07-01T00:59:15.958Z,62.21
2018-07-01T01:01:43.784Z,60.90
2018-07-01T01:04:11.651Z,61.79
2018-07-01T01:06:39.577Z,61.42
2018-07-01T01:09:10.683Z,61.54
2018-07-01T01:11:38.910Z,61.88
2018-07-01T01:14:07.131Z,61.57
2018-07-01T01:16:35.314Z,61.43
2018-07-01T01:19:03.313Z,61.15
2018-07-01T01:21:31.186Z,61.74
2018-07-01T01:23:59.138Z,61.18
2018-07-01T01:26:27.329Z,60.23
2018-07-01T01:28:55.230Z,60.51
2018-07-01T01:31:23.288Z,58.89
2018-07-01T01:33:51.225Z,58.09
2018-07-01T01:36:19.184Z,57.29
2018-07-01T01:38:48.210Z,56.96
2018-07-01T01:41:22.775Z,55.75
2018-07-01T01:43:57.300Z,54.87
2018-07-01T01:46:30.782Z,54.67
2018-07-01T01:50:05.755Z,52.18
2018-07-01T01:52:41.121Z,51.91
2018-07-01T01:55:14.414Z,50.29
2018-07-01T01:57:48.780Z,51.25
2018-07-01T02:00:23.404Z,51.07
2018-07-01T02:02:55.775Z,50.29
2018-07-01T02:05:27.438Z,49.69
2018-07-01T02:08:01.647Z,49.85
2018-07-01T02:10:29.649Z,48.96
2018-07-01T02:12:57.669Z,49.92
2018-07-01T02:15:29.142Z,49.68
2018-07-01T02:17:57.154Z,50.22
2018-07-01T02:20:28.964Z,49.17
2018-07-01T02:23:03.274Z,49.77
2018-07-01T02:25:32.887Z,50.48
2018-07-01T02:28:00.835Z,51.38
2018-07-01T02:30:28.931Z,51.58
2018-07-01T02:32:56.808Z,50.11
2018-07-01T02:35:24.804Z,51.22
2018-07-01T02:37:52.655Z,52.04
2018-07-01T02:40:20.550Z,51.92
2018-07-01T02:42:48.412Z,52.45
2018-07-01T02:45:16.288Z,50.98
2018-07-01T02:47:44.207Z,51.49
2018-07-01T02:50:12.429Z,50.17
2018-07-01T02:52:40.387Z,49.89
2018-07-01T02:55:08.357Z,48.44
2018-07-01T02:57:36.281Z,48.96
2018-07-01T03:00:04.834Z,47.33
2018-07-01T03:02:32.738Z,46.21
2018-07-01T03:05:00.579Z,45.98
2018-07-01T03:07:28.427Z,44.66
2018-07-01T03:09:56.296Z,44.10
2018-07-01T03:12:24.171Z,44.96
2018-07-01T03:14:52.015Z,45.41
2018-07-01T03:17:19.978Z,45.02
2018-07-01T03:19:47.854Z,42.81
2018-07-01T03:22:15.716Z,44.42
2018-07-01T03:24:43.623Z,45.71
2018-07-01T03:27:11.488Z,44.59
2018-07-01T03:29:39.348Z,44.67
2018-07-01T03:32:07.244Z,44.27
2018-07-01T03:34:35.098Z,42.78
2018-07-01T03:37:03.015Z,43.94
2018-07-01T03:39:30.855Z,44.31
2018-07-01T03:41:58.725Z,40.99
2018-07-01T03:44:26.607Z,40.46
2018-07-01T03:46:54.498Z,42.14
2018-07-01T03:49:22.342Z,40.24
2018-07-01T03:51:50.300Z,38.96
2018-07-01T03:54:18.147Z,39.75
2018-07-01T03:56:46.058Z,40.32
2018-07-01T03:59:13.898Z,37.89
2018-07-01T04:01:41.804Z,36.54
2018-07-01T04:04:09.719Z,37.93
2018-07-01T04:06:37.606Z,37.77
2018-07-01T04:09:08.040Z,33.98
2018-07-01T04:11:35.995Z,32.71
2018-07-01T04:14:03.965Z,34.56
2018-07-01T04:16:31.790Z,34.54
2018-07-01T04:18:59.706Z,35.29
2018-07-01T04:21:27.608Z,34.04
2018-07-01T04:23:55.463Z,35.83
2018-07-01T04:26:23.367Z,33.49
2018-07-01T04:28:51.243Z,31.35
2018-07-01T04:31:19.103Z,30.25
2018-07-01T04:33:47.194Z,33.12
2018-07-01T04:36:15.031Z,31.71
2018-07-01T04:38:42.960Z,30.34
2018-07-01T04:41:10.862Z,29.58
2018-07-01T04:43:38.774Z,30.42
2018-07-01T04:46:06.682Z,32.31
2018-07-01T04:48:34.543Z,36.41
2018-07-01T04:51:02.412Z,35.92
2018-07-01T04:53:30.280Z,34.32
2018-07-01T04:55:58.167Z,31.99
2018-07-01T04:58:26.056Z,28.65
2018-07-01T05:00:53.956Z,30.69
2018-07-01T05:03:21.871Z,32.53
2018-07-01T05:05:49.734Z,33.63
2018-07-01T05:08:17.597Z,33.87
2018-07-01T05:10:45.714Z,35.70
2018-07-01T05:13:13.593Z,35.65
2018-07-01T05:15:41.487Z,35.17
2018-07-01T05:18:09.418Z,35.28
2018-07-01T05:20:37.281Z,35.54
2018-07-01T05:23:05.270Z,36.98
2018-07-01T05:25:33.148Z,36.52
2018-07-01T05:28:01.005Z,36.61
2018-07-01T05:30:28.919Z,35.19
2018-07-01T05:32:56.800Z,33.40
2018-07-01T05:35:24.680Z,32.67
2018-07-01T05:37:52.859Z,31.98
2018-07-01T05:40:20.763Z,36.51
2018-07-01T05:42:48.626Z,37.11
2018-07-01T05:45:16.504Z,34.13
2018-07-01T05:47:44.359Z,31.92
2018-07-01T05:50:12.219Z,32.77
2018-07-01T05:52:40.103Z,30.66
2018-07-01T05:55:08.000Z,33.06
2018-07-01T05:57:35.904Z,35.91
2018-07-01T06:00:04.351Z,35.65
2018-07-01T06:02:32.235Z,35.95
2018-07-01T06:05:00.115Z,34.31
2018-07-01T06:07:27.985Z,37.04
2018-07-01T06:09:55.854Z,33.34
2018-07-01T06:12:23.703Z,33.31
2018-07-01T06:14:51.615Z,35.15
2018-07-01T06:17:19.507Z,34.50
2018-07-01T06:19:47.350Z,32.64
2018-07-01T06:22:15.309Z,33.26
2018-07-01T06:24:43.274Z,31.79
2018-07-01T06:27:11.126Z,31.16
2018-07-01T06:29:39.030Z,33.37
2018-07-01T06:32:06.940Z,35.14
2018-07-01T06:34:34.823Z,35.24
2018-07-01T06:37:02.697Z,33.65
2018-07-01T06:39:30.549Z,34.34
2018-07-01T06:41:58.442Z,35.98
2018-07-01T06:44:26.277Z,34.92
2018-07-01T06:46:54.202Z,33.24
2018-07-01T06:49:22.086Z,34.96
2018-07-01T06:51:49.976Z,35.49
2018-07-01T06:54:17.865Z,35.05
2018-07-01T06:56:45.731Z,34.19
2018-07-01T06:59:13.611Z,35.52
2018-07-01T07:01:41.497Z,33.36
2018-07-01T07:04:09.424Z,34.86
2018-07-01T07:06:37.284Z,33.31
2018-07-01T07:09:07.864Z,33.24
2018-07-01T07:11:35.782Z,34.87
2018-07-01T07:14:03.868Z,34.31
2018-07-01T07:16:31.848Z,32.98
2018-07-01T07:18:59.708Z,33.75
2018-07-01T07:21:27.603Z,34.09
2018-07-01T07:23:55.561Z,32.47
2018-07-01T07:26:23.421Z,34.09
2018-07-01T07:28:51.296Z,32.57
2018-07-01T07:31:19.151Z,30.61
2018-07-01T07:33:47.013Z,32.50
2018-07-01T07:36:14.927Z,33.02
2018-07-01T07:38:42.783Z,32.57
2018-07-01T07:41:10.672Z,31.75
2018-07-01T07:43:38.635Z,31.35
2018-07-01T07:46:06.597Z,33.62
2018-07-01T07:48:34.863Z,32.80
2018-07-01T07:51:02.789Z,32.56
2018-07-01T07:53:30.994Z,33.11
2018-07-01T07:55:58.879Z,33.88
2018-07-01T07:58:26.871Z,36.47
2018-07-01T08:00:54.780Z,35.79
2018-07-01T08:03:22.867Z,34.04
2018-07-01T08:05:50.751Z,34.45
2018-07-01T08:08:18.686Z,34.24
2018-07-01T08:10:46.531Z,32.81
2018-07-01T08:13:14.415Z,34.45
2018-07-01T08:15:42.483Z,32.94
2018-07-01T08:18:10.437Z,32.91
2018-07-01T08:20:38.301Z,32.55
2018-07-01T08:23:06.198Z,31.30
2018-07-01T08:25:34.102Z,31.35
2018-07-01T08:28:01.963Z,30.59
2018-07-01T08:30:29.874Z,31.66
2018-07-01T08:32:57.751Z,31.35
2018-07-01T08:35:25.644Z,32.49
2018-07-01T08:37:53.539Z,32.52
2018-07-01T08:40:21.486Z,30.50
2018-07-01T08:42:49.284Z,30.91
2018-07-01T08:45:17.171Z,30.50
2018-07-01T08:47:45.043Z,29.74
2018-07-01T08:50:12.901Z,30.45
2018-07-01T08:52:40.807Z,31.21
2018-07-01T08:55:08.688Z,31.64
2018-07-01T08:57:36.515Z,30.71
2018-07-01T09:00:05.690Z,30.51
2018-07-01T09:02:33.581Z,30.98
2018-07-01T09:05:01.407Z,30.81
2018-07-01T09:07:29.248Z,31.05
2018-07-01T09:09:57.120Z,30.04
2018-07-01T09:12:24.939Z,29.91
2018-07-01T09:14:52.825Z,30.55
2018-07-01T09:17:20.821Z,30.04
2018-07-01T09:19:48.636Z,29.23
2018-07-01T09:22:16.509Z,28.60
2018-07-01T09:24:44.390Z,29.78
2018-07-01T09:27:12.266Z,30.03
2018-07-01T09:29:45.722Z,30.33
2018-07-01T09:32:13.710Z,29.90
2018-07-01T09:34:41.700Z,30.29
2018-07-01T09:37:09.514Z,29.12
2018-07-01T09:39:37.359Z,28.61
2018-07-01T09:42:05.348Z,29.98
2018-07-01T09:44:33.198Z,28.93
2018-07-01T09:47:01.040Z,28.21
2018-07-01T09:49:28.871Z,29.94
2018-07-01T09:51:56.762Z,28.93
2018-07-01T09:54:24.587Z,27.60
2018-07-01T09:56:52.548Z,30.22
2018-07-01T09:59:20.471Z,28.79
2018-07-01T10:01:48.312Z,29.98
2018-07-01T10:04:16.178Z,29.67
2018-07-01T10:06:44.010Z,30.33
2018-07-01T10:09:11.923Z,29.00
2018-07-01T10:11:39.800Z,28.41
2018-07-01T10:14:08.294Z,30.44
2018-07-01T10:16:36.292Z,28.57
2018-07-01T10:19:04.331Z,28.55
2018-07-01T10:21:32.287Z,28.30
2018-07-01T10:24:00.160Z,28.58
2018-07-01T10:26:28.080Z,28.37
2018-07-01T10:29:03.726Z,30.26
2018-07-01T10:31:31.600Z,27.35
2018-07-01T10:33:59.507Z,27.30
2018-07-01T10:36:27.451Z,28.35
2018-07-01T10:38:55.309Z,28.95
2018-07-01T10:41:23.411Z,28.53
2018-07-01T10:43:51.264Z,27.79
2018-07-01T10:46:19.277Z,27.84
2018-07-01T10:48:47.185Z,28.76
2018-07-01T10:51:15.076Z,31.33
2018-07-01T10:53:42.906Z,29.14
2018-07-01T10:56:10.750Z,29.73
2018-07-01T10:58:38.946Z,27.49
2018-07-01T11:01:06.900Z,27.58
2018-07-01T11:03:34.932Z,26.87
2018-07-01T11:06:03.148Z,27.70
2018-07-01T11:08:31.039Z,30.17
2018-07-01T11:10:58.976Z,29.34
2018-07-01T11:13:26.858Z,28.25
2018-07-01T11:15:54.762Z,29.52
2018-07-01T11:18:22.619Z,29.83
2018-07-01T11:20:50.481Z,28.31
2018-07-01T11:23:18.389Z,28.74
2018-07-01T11:25:46.282Z,28.92
2018-07-01T11:28:14.363Z,29.48
2018-07-01T11:30:42.244Z,29.22
2018-07-01T11:33:10.120Z,27.34
2018-07-01T11:35:37.999Z,28.53
2018-07-01T11:38:05.966Z,30.00
2018-07-01T11:40:33.838Z,28.28
2018-07-01T11:43:01.743Z,28.98
2018-07-01T11:45:29.590Z,29.90
2018-07-01T11:47:57.473Z,29.61
2018-07-01T11:50:25.563Z,27.76
2018-07-01T11:52:53.514Z,28.43
2018-07-01T11:55:21.411Z,27.79
2018-07-01T11:57:49.254Z,29.80
2018-07-01T12:00:17.131Z,29.04
2018-07-01T12:02:45.004Z,28.40
2018-07-01T12:05:16.653Z,28.65
2018-07-01T12:07:40.812Z,28.43
2018-07-01T12:10:08.780Z,28.60
2018-07-01T12:12:36.685Z,27.46
2018-07-01T12:15:04.859Z,27.40
2018-07-01T12:17:32.732Z,27.36
2018-07-01T12:20:00.597Z,28.66
2018-07-01T12:22:28.787Z,29.34
2018-07-01T12:24:56.656Z,27.53
2018-07-01T12:27:24.536Z,26.12
2018-07-01T12:29:52.394Z,28.26
2018-07-01T12:32:20.309Z,26.80
2018-07-01T12:34:48.180Z,27.44
2018-07-01T12:37:21.548Z,26.52
2018-07-01T12:39:49.425Z,26.24
2018-07-01T12:42:17.346Z,25.99
2018-07-01T12:44:45.201Z,26.51
2018-07-01T12:47:13.122Z,27.30
2018-07-01T12:49:40.998Z,27.62
2018-07-01T12:52:08.840Z,28.05
2018-07-01T12:54:37.028Z,27.04
2018-07-01T12:57:04.854Z,26.79
2018-07-01T12:59:32.695Z,28.61
2018-07-01T13:02:00.583Z,27.56
2018-07-01T13:04:28.450Z,27.16
2018-07-01T13:06:56.302Z,27.47
2018-07-01T13:09:24.126Z,26.09
2018-07-01T13:11:52.238Z,27.10
2018-07-01T13:14:20.111Z,28.99
2018-07-01T13:16:47.996Z,27.07
2018-07-01T13:19:15.821Z,26.87
2018-07-01T13:21:43.671Z,28.97
2018-07-01T13:24:11.498Z,27.60
2018-07-01T13:26:39.366Z,28.51
2018-07-01T13:29:07.279Z,27.09
2018-07-01T13:31:35.130Z,26.66
2018-07-01T13:34:02.999Z,28.46
2018-07-01T13:36:30.881Z,27.44
2018-07-01T13:38:58.766Z,27.45
2018-07-01T13:41:26.596Z,26.97
2018-07-01T13:43:54.502Z,27.12
2018-07-01T13:46:22.548Z,27.58
2018-07-01T13:48:50.498Z,26.92
2018-07-01T13:51:18.410Z,27.26
2018-07-01T13:53:46.347Z,25.95
2018-07-01T13:56:14.231Z,25.52
2018-07-01T13:58:42.091Z,27.25
2018-07-01T14:01:09.960Z,27.12
2018-07-01T14:03:37.801Z,27.19
2018-07-01T14:06:05.945Z,28.40
2018-07-01T14:08:33.868Z,26.88
2018-07-01T14:11:01.730Z,27.24
2018-07-01T14:13:29.653Z,26.80
2018-07-01T14:15:57.548Z,26.75
2018-07-01T14:18:25.435Z,26.79
2018-07-01T14:20:53.368Z,28.12
2018-07-01T14:23:21.216Z,27.29
2018-07-01T14:25:49.071Z,24.94
2018-07-01T14:28:16.926Z,25.75
2018-07-01T14:30:44.836Z,26.98
2018-07-01T14:33:13.323Z,25.89
2018-07-01T14:35:41.256Z,25.81
2018-07-01T14:38:09.107Z,26.60
2018-07-01T14:40:36.981Z,25.92
2018-07-01T14:43:04.854Z,27.00
2018-07-01T14:45:32.732Z,27.52
2018-07-01T14:48:00.592Z,26.84
2018-07-01T14:50:28.455Z,26.70
2018-07-01T14:53:02.363Z,26.25
2018-07-01T14:55:30.477Z,26.54
2018-07-01T14:57:58.385Z,26.40
2018-07-01T15:00:26.227Z,27.25
2018-07-01T15:02:54.647Z,27.09
2018-07-01T15:05:23.980Z,26.54
2018-07-01T15:07:53.040Z,27.10
2018-07-01T15:10:21.172Z,26.22
2018-07-01T15:12:49.199Z,26.76
2018-07-01T15:15:17.985Z,26.17
2018-07-01T15:17:46.250Z,26.89
2018-07-01T15:20:14.864Z,26.80
2018-07-01T15:22:45.713Z,27.07
2018-07-01T15:25:14.738Z,27.34
2018-07-01T15:27:43.496Z,25.98
2018-07-01T15:30:13.683Z,25.88
2018-07-01T15:32:42.016Z,26.43
2018-07-01T15:35:09.874Z,26.23
2018-07-01T15:37:37.744Z,27.66
2018-07-01T15:40:06.636Z,27.77
2018-07-01T15:42:34.756Z,27.82
2018-07-01T15:45:02.736Z,27.06
2018-07-01T15:47:30.669Z,27.10
2018-07-01T15:49:59.127Z,27.42
2018-07-01T15:52:27.491Z,27.73
2018-07-01T15:54:55.401Z,27.82
2018-07-01T15:57:23.298Z,28.05
2018-07-01T15:59:51.172Z,28.26
2018-07-01T16:02:19.132Z,27.23
2018-07-01T16:04:47.053Z,26.78
2018-07-01T16:07:15.118Z,27.43
2018-07-01T16:09:43.210Z,27.53
2018-07-01T16:12:11.551Z,27.98
2018-07-01T16:14:40.547Z,28.59
2018-07-01T16:17:08.774Z,28.35
2018-07-01T16:19:36.644Z,28.54
2018-07-01T16:22:05.469Z,29.63
2018-07-01T16:24:37.950Z,30.22
2018-07-01T16:27:11.391Z,29.76
2018-07-01T16:29:39.261Z,30.19
2018-07-01T16:32:07.178Z,30.31
2018-07-01T16:34:37.302Z,30.27
2018-07-01T16:37:07.706Z,30.76
2018-07-01T16:39:35.634Z,31.04
2018-07-01T16:42:04.379Z,31.06
2018-07-01T16:44:32.280Z,31.98
2018-07-01T16:47:00.134Z,31.37
2018-07-01T16:49:28.026Z,32.29
2018-07-01T16:51:56.004Z,32.43
2018-07-01T16:54:23.871Z,31.62
2018-07-01T16:56:51.739Z,31.83
2018-07-01T16:59:19.590Z,32.81
2018-07-01T17:01:47.471Z,32.85
2018-07-01T17:04:15.356Z,32.61
2018-07-01T17:06:43.350Z,33.11
2018-07-01T17:09:11.208Z,32.58
2018-07-01T17:11:39.070Z,31.92
2018-07-01T17:14:07.137Z,32.45
2018-07-01T17:16:34.965Z,32.42
2018-07-01T17:19:02.885Z,33.33
2018-07-01T17:21:30.727Z,33.67
2018-07-01T17:23:58.601Z,34.22
2018-07-01T17:26:26.444Z,34.55
2018-07-01T17:28:54.327Z,33.98
2018-07-01T17:31:27.783Z,35.24
2018-07-01T17:33:55.675Z,34.27
2018-07-01T17:36:23.559Z,34.91
2018-07-01T17:38:51.403Z,34.98
2018-07-01T17:41:19.278Z,35.60
2018-07-01T17:43:47.138Z,35.58
2018-07-01T17:46:14.985Z,35.32
2018-07-01T17:48:42.852Z,36.37
2018-07-01T17:51:10.690Z,36.56
2018-07-01T17:53:49.021Z,36.63
2018-07-01T17:56:16.991Z,36.93
2018-07-01T17:58:44.896Z,36.97
2018-07-01T18:01:13.095Z,36.94
2018-07-01T18:03:41.318Z,36.37
2018-07-01T18:06:09.205Z,36.42
2018-07-01T18:08:37.620Z,36.72
2018-07-01T18:11:05.931Z,36.35
2018-07-01T18:13:34.062Z,36.74
2018-07-01T18:16:01.930Z,37.72
2018-07-01T18:18:29.806Z,38.30
2018-07-01T18:20:57.691Z,38.37
2018-07-01T18:23:53.695Z,40.06
2018-07-01T18:25:53.966Z,39.27
2018-07-01T18:28:34.112Z,39.45
2018-07-01T18:30:49.926Z,40.66
2018-07-01T18:33:17.817Z,39.86
2018-07-01T18:35:46.105Z,39.49
2018-07-01T18:38:14.270Z,39.31
2018-07-01T18:40:42.238Z,39.32
2018-07-01T18:43:10.159Z,40.40
2018-07-01T18:45:38.022Z,40.33
2018-07-01T18:48:06.081Z,41.89
2018-07-01T18:50:33.964Z,42.95
2018-07-01T18:53:01.869Z,44.22
2018-07-01T18:55:29.823Z,43.91
2018-07-01T18:57:57.776Z,44.06
2018-07-01T19:00:25.686Z,44.26
2018-07-01T19:03:00.297Z,44.82
2018-07-01T19:05:28.430Z,45.93
2018-07-01T19:07:56.277Z,45.50
2018-07-01T19:10:24.312Z,44.32
2018-07-01T19:12:52.883Z,44.02
2018-07-01T19:15:20.895Z,44.46
2018-07-01T19:17:49.037Z,43.80
2018-07-01T19:20:17.079Z,44.20
2018-07-01T19:22:45.028Z,44.23
2018-07-01T19:25:12.922Z,44.00
2018-07-01T19:27:40.835Z,43.30
2018-07-01T19:30:08.760Z,42.59
2018-07-01T19:32:36.829Z,43.44
2018-07-01T19:35:05.358Z,43.12
2018-07-01T19:37:33.347Z,43.42
2018-07-01T19:40:01.272Z,42.89
2018-07-01T19:42:29.229Z,43.09
2018-07-01T19:44:57.384Z,43.64
2018-07-01T19:47:25.443Z,42.44
2018-07-01T19:49:53.623Z,42.71
2018-07-01T19:52:21.622Z,43.21
2018-07-01T19:54:49.498Z,41.46
2018-07-01T19:57:17.394Z,42.18
2018-07-01T19:59:45.611Z,41.63
2018-07-01T20:02:13.656Z,40.81
2018-07-01T20:04:41.618Z,40.87
2018-07-01T20:07:09.553Z,41.35
2018-07-01T20:09:37.553Z,41.47
2018-07-01T20:12:05.832Z,41.34
2018-07-01T20:14:33.767Z,40.50
2018-07-01T20:17:01.692Z,40.00
2018-07-01T20:19:29.620Z,40.42
2018-07-01T20:21:57.538Z,40.14
2018-07-01T20:24:25.466Z,40.56
2018-07-01T20:26:53.426Z,41.05
2018-07-01T20:29:21.402Z,41.52
2018-07-01T20:31:49.246Z,42.53
2018-07-01T20:34:17.150Z,42.76
2018-07-01T20:36:45.676Z,42.88
2018-07-01T20:39:14.609Z,42.55
2018-07-01T20:41:43.302Z,42.12
2018-07-01T20:44:11.224Z,41.94
2018-07-01T20:46:39.455Z,42.57
2018-07-01T20:49:07.359Z,44.27
2018-07-01T20:51:35.220Z,44.87
2018-07-01T20:54:03.176Z,44.21
2018-07-01T20:56:31.056Z,44.22
2018-07-01T20:58:58.910Z,45.28
2018-07-01T21:01:27.083Z,44.43
2018-07-01T21:03:55.012Z,43.12
2018-07-01T21:06:22.924Z,43.79
2018-07-01T21:08:50.833Z,42.99
2018-07-01T21:11:18.673Z,42.41
2018-07-01T21:13:46.590Z,41.66
2018-07-01T21:16:14.952Z,41.12
2018-07-01T21:18:42.861Z,41.51
2018-07-01T21:21:10.735Z,42.51
2018-07-01T21:23:38.646Z,43.40
2018-07-01T21:26:07.143Z,43.45
2018-07-01T21:28:35.009Z,44.10
2018-07-01T21:31:02.897Z,44.04
2018-07-01T21:33:30.745Z,43.41
2018-07-01T21:35:58.707Z,44.11
2018-07-01T21:38:26.634Z,45.39
2018-07-01T21:40:54.497Z,46.33
2018-07-01T21:43:22.385Z,46.46
2018-07-01T21:45:51.596Z,45.93
2018-07-01T21:48:19.541Z,45.16
2018-07-01T21:50:47.666Z,45.54
2018-07-01T21:53:15.606Z,44.47
2018-07-01T21:55:43.498Z,43.73
2018-07-01T21:58:11.398Z,44.09
2018-07-01T22:00:39.286Z,42.87
2018-07-01T22:03:07.195Z,43.60
2018-07-01T22:05:35.093Z,44.00
2018-07-01T22:08:03.135Z,44.23
2018-07-01T22:10:42.088Z,45.46
2018-07-01T22:13:20.975Z,46.36
2018-07-01T22:15:59.971Z,46.07
2018-07-01T22:18:27.795Z,45.39
2018-07-01T22:20:55.714Z,46.18
2018-07-01T22:23:23.915Z,47.11
2018-07-01T22:25:51.807Z,46.65
2018-07-01T22:28:19.713Z,48.12
2018-07-01T22:30:47.596Z,47.90
2018-07-01T22:33:15.477Z,48.31
2018-07-01T22:35:43.391Z,48.90
2018-07-01T22:38:11.303Z,48.37
2018-07-01T22:40:39.211Z,49.73
2018-07-01T22:43:07.398Z,50.72
2018-07-01T22:45:35.295Z,50.91
2018-07-01T22:48:03.153Z,50.89
2018-07-01T22:50:31.001Z,50.77
2018-07-01T22:52:59.179Z,50.65
2018-07-01T22:55:27.066Z,50.26
2018-07-01T22:57:54.951Z,51.78
2018-07-01T23:00:22.892Z,51.50
2018-07-01T23:03:07.074Z,52.93
2018-07-01T23:05:34.861Z,53.09
2018-07-01T23:08:02.750Z,54.96
2018-07-01T23:10:31.293Z,54.73
2018-07-01T23:12:59.604Z,53.47
2018-07-01T23:15:27.513Z,51.99
2018-07-01T23:17:55.465Z,51.64
2018-07-01T23:20:23.361Z,51.20
2018-07-01T23:22:51.278Z,51.97
2018-07-01T23:25:19.193Z,51.70
2018-07-01T23:27:47.576Z,51.89
2018-07-01T23:30:15.476Z,50.50
2018-07-01T23:32:43.816Z,50.67
2018-07-01T23:35:11.694Z,50.20
2018-07-01T23:37:39.863Z,49.78
2018-07-01T23:40:08.443Z,49.98
2018-07-01T23:42:36.343Z,50.45
2018-07-01T23:45:04.919Z,50.43
2018-07-01T23:47:32.775Z,50.36
2018-07-01T23:50:00.657Z,50.22
2018-07-01T23:52:28.553Z,52.05
2018-07-01T23:54:56.423Z,52.70
2018-07-01T23:57:24.295Z,53.38
2018-07-01T23:59:52.152Z,53.72
